sensor_id;sensor_type;location;lat;lon;timestamp;P1;durP1;ratioP1;P2;durP2;ratioP2
1949;SDS011;975;48.760;9.152;2023-08-17T00:01:15;3.30;;;2.20;;
1949;SDS011;975;48.760;9.152;2023-08-17T00:04:04;4.15;;;3.03;;
1949;SDS011;975;48.760;9.152;2023-08-17T00:06:52;3.47;;;2.45;;
1949;SDS011;975;48.760;9.152;2023-08-17T00:09:40;7.85;;;2.80;;
1949;SDS011;975;48.760;9.152;2023-08-17T00:12:28;5.28;;;2.67;;
1949;SDS011;975;48.760;9.152;2023-08-17T00:15:15;5.35;;;2.72;;
1949;SDS011;975;48.760;9.152;2023-08-17T00:18:03;4.97;;;2.70;;
1949;SDS011;975;48.760;9.152;2023-08-17T00:21:00;4.10;;;2.83;;
1949;SDS011;975;48.760;9.152;2023-08-17T00:23:49;4.13;;;3.00;;
1949;SDS011;975;48.760;9.152;2023-08-17T00:26:37;6.88;;;3.58;;
1949;SDS011;975;48.760;9.152;2023-08-17T00:29:28;9.00;;;3.72;;
1949;SDS011;975;48.760;9.152;2023-08-17T00:32:16;4.72;;;3.08;;
1949;SDS011;975;48.760;9.152;2023-08-17T00:35:07;6.22;;;3.33;;
1949;SDS011;975;48.760;9.152;2023-08-17T00:37:56;4.55;;;3.15;;
1949;SDS011;975;48.760;9.152;2023-08-17T00:40:44;5.05;;;3.00;;
1949;SDS011;975;48.760;9.152;2023-08-17T00:43:34;4.70;;;3.45;;
1949;SDS011;975;48.760;9.152;2023-08-17T00:46:22;4.53;;;3.30;;
1949;SDS011;975;48.760;9.152;2023-08-17T00:49:10;4.63;;;3.17;;
1949;SDS011;975;48.760;9.152;2023-08-17T00:51:58;5.68;;;3.20;;
1949;SDS011;975;48.760;9.152;2023-08-17T00:54:51;4.78;;;3.28;;
1949;SDS011;975;48.760;9.152;2023-08-17T00:57:39;7.03;;;3.75;;
1949;SDS011;975;48.760;9.152;2023-08-17T01:00:27;5.90;;;3.65;;
1949;SDS011;975;48.760;9.152;2023-08-17T01:03:15;6.55;;;3.45;;
1949;SDS011;975;48.760;9.152;2023-08-17T01:06:04;4.30;;;3.40;;
1949;SDS011;975;48.760;9.152;2023-08-17T01:08:59;5.05;;;3.22;;
1949;SDS011;975;48.760;9.152;2023-08-17T01:12:05;6.45;;;3.53;;
1949;SDS011;975;48.760;9.152;2023-08-17T01:14:58;4.95;;;3.53;;
1949;SDS011;975;48.760;9.152;2023-08-17T01:17:47;4.63;;;3.10;;
1949;SDS011;975;48.760;9.152;2023-08-17T01:20:38;4.95;;;3.30;;
1949;SDS011;975;48.760;9.152;2023-08-17T01:23:30;4.35;;;3.13;;
1949;SDS011;975;48.760;9.152;2023-08-17T01:26:18;5.50;;;3.25;;
1949;SDS011;975;48.760;9.152;2023-08-17T01:29:09;4.85;;;3.13;;
1949;SDS011;975;48.760;9.152;2023-08-17T01:31:58;5.22;;;3.38;;
1949;SDS011;975;48.760;9.152;2023-08-17T01:34:53;6.38;;;3.38;;
1949;SDS011;975;48.760;9.152;2023-08-17T01:37:43;6.55;;;3.20;;
1949;SDS011;975;48.760;9.152;2023-08-17T01:40:33;4.97;;;3.33;;
1949;SDS011;975;48.760;9.152;2023-08-17T01:43:23;4.72;;;3.10;;
1949;SDS011;975;48.760;9.152;2023-08-17T01:46:12;5.30;;;3.00;;
1949;SDS011;975;48.760;9.152;2023-08-17T01:49:01;5.20;;;3.95;;
1949;SDS011;975;48.760;9.152;2023-08-17T01:51:48;5.00;;;3.22;;
1949;SDS011;975;48.760;9.152;2023-08-17T01:54:36;5.55;;;3.08;;
1949;SDS011;975;48.760;9.152;2023-08-17T01:57:26;4.75;;;3.38;;
1949;SDS011;975;48.760;9.152;2023-08-17T02:00:14;5.65;;;3.28;;
1949;SDS011;975;48.760;9.152;2023-08-17T02:03:02;7.38;;;3.45;;
1949;SDS011;975;48.760;9.152;2023-08-17T02:05:50;6.78;;;3.72;;
1949;SDS011;975;48.760;9.152;2023-08-17T02:08:41;7.78;;;3.65;;
1949;SDS011;975;48.760;9.152;2023-08-17T02:11:29;6.05;;;3.53;;
1949;SDS011;975;48.760;9.152;2023-08-17T02:14:20;5.72;;;3.53;;
1949;SDS011;975;48.760;9.152;2023-08-17T02:17:11;6.53;;;3.38;;
1949;SDS011;975;48.760;9.152;2023-08-17T02:19:59;9.43;;;3.47;;
1949;SDS011;975;48.760;9.152;2023-08-17T02:22:47;5.45;;;3.25;;
1949;SDS011;975;48.760;9.152;2023-08-17T02:25:38;5.30;;;3.63;;
1949;SDS011;975;48.760;9.152;2023-08-17T02:28:26;8.13;;;3.63;;
1949;SDS011;975;48.760;9.152;2023-08-17T02:31:15;6.65;;;3.50;;
1949;SDS011;975;48.760;9.152;2023-08-17T02:34:03;5.68;;;3.38;;
1949;SDS011;975;48.760;9.152;2023-08-17T02:36:51;5.18;;;3.50;;
1949;SDS011;975;48.760;9.152;2023-08-17T02:39:39;5.07;;;3.05;;
1949;SDS011;975;48.760;9.152;2023-08-17T02:42:33;5.30;;;3.13;;
1949;SDS011;975;48.760;9.152;2023-08-17T02:45:21;8.25;;;3.30;;
1949;SDS011;975;48.760;9.152;2023-08-17T02:48:10;6.03;;;3.53;;
1949;SDS011;975;48.760;9.152;2023-08-17T02:50:58;3.70;;;2.75;;
1949;SDS011;975;48.760;9.152;2023-08-17T02:53:46;6.55;;;3.20;;
1949;SDS011;975;48.760;9.152;2023-08-17T02:56:34;4.53;;;3.20;;
1949;SDS011;975;48.760;9.152;2023-08-17T02:59:22;7.82;;;3.78;;
1949;SDS011;975;48.760;9.152;2023-08-17T03:02:10;7.18;;;3.67;;
1949;SDS011;975;48.760;9.152;2023-08-17T03:04:59;5.43;;;3.42;;
1949;SDS011;975;48.760;9.152;2023-08-17T03:07:47;6.30;;;3.88;;
1949;SDS011;975;48.760;9.152;2023-08-17T03:10:34;4.03;;;3.10;;
1949;SDS011;975;48.760;9.152;2023-08-17T03:13:24;7.45;;;3.30;;
1949;SDS011;975;48.760;9.152;2023-08-17T03:16:12;6.00;;;3.92;;
1949;SDS011;975;48.760;9.152;2023-08-17T03:19:00;6.95;;;4.05;;
1949;SDS011;975;48.760;9.152;2023-08-17T03:21:49;7.28;;;3.70;;
1949;SDS011;975;48.760;9.152;2023-08-17T03:24:37;6.85;;;3.85;;
1949;SDS011;975;48.760;9.152;2023-08-17T03:27:25;5.88;;;3.67;;
1949;SDS011;975;48.760;9.152;2023-08-17T03:30:14;5.20;;;3.35;;
1949;SDS011;975;48.760;9.152;2023-08-17T03:33:02;6.07;;;3.63;;
1949;SDS011;975;48.760;9.152;2023-08-17T03:35:50;7.25;;;4.60;;
1949;SDS011;975;48.760;9.152;2023-08-17T03:38:48;8.32;;;4.13;;
1949;SDS011;975;48.760;9.152;2023-08-17T03:41:36;9.32;;;4.38;;
1949;SDS011;975;48.760;9.152;2023-08-17T03:44:24;5.13;;;3.35;;
1949;SDS011;975;48.760;9.152;2023-08-17T03:47:12;9.70;;;4.60;;
1949;SDS011;975;48.760;9.152;2023-08-17T03:50:00;5.90;;;3.92;;
1949;SDS011;975;48.760;9.152;2023-08-17T03:52:51;6.10;;;3.13;;
1949;SDS011;975;48.760;9.152;2023-08-17T03:55:40;6.20;;;3.75;;
1949;SDS011;975;48.760;9.152;2023-08-17T03:58:30;6.15;;;4.20;;
1949;SDS011;975;48.760;9.152;2023-08-17T04:04:07;8.75;;;5.53;;
1949;SDS011;975;48.760;9.152;2023-08-17T04:06:55;11.27;;;5.95;;
1949;SDS011;975;48.760;9.152;2023-08-17T04:09:43;12.25;;;6.80;;
1949;SDS011;975;48.760;9.152;2023-08-17T04:12:38;17.27;;;7.15;;
1949;SDS011;975;48.760;9.152;2023-08-17T04:15:26;12.02;;;6.35;;
1949;SDS011;975;48.760;9.152;2023-08-17T04:18:14;12.82;;;6.22;;
1949;SDS011;975;48.760;9.152;2023-08-17T04:21:04;13.82;;;5.97;;
1949;SDS011;975;48.760;9.152;2023-08-17T04:23:52;7.68;;;4.80;;
1949;SDS011;975;48.760;9.152;2023-08-17T04:26:39;10.25;;;6.20;;
1949;SDS011;975;48.760;9.152;2023-08-17T04:29:31;11.23;;;7.00;;
1949;SDS011;975;48.760;9.152;2023-08-17T04:32:19;11.77;;;6.53;;
1949;SDS011;975;48.760;9.152;2023-08-17T04:35:07;11.13;;;6.15;;
1949;SDS011;975;48.760;9.152;2023-08-17T04:37:55;13.75;;;7.13;;
1949;SDS011;975;48.760;9.152;2023-08-17T04:40:49;12.63;;;6.93;;
1949;SDS011;975;48.760;9.152;2023-08-17T04:43:37;15.02;;;7.10;;
1949;SDS011;975;48.760;9.152;2023-08-17T04:46:26;17.35;;;8.07;;
1949;SDS011;975;48.760;9.152;2023-08-17T04:49:14;14.77;;;7.70;;
1949;SDS011;975;48.760;9.152;2023-08-17T04:52:07;13.30;;;7.68;;
1949;SDS011;975;48.760;9.152;2023-08-17T04:54:54;14.40;;;7.47;;
1949;SDS011;975;48.760;9.152;2023-08-17T04:57:42;14.13;;;7.50;;
1949;SDS011;975;48.760;9.152;2023-08-17T05:00:33;17.88;;;8.30;;
1949;SDS011;975;48.760;9.152;2023-08-17T05:03:22;15.63;;;8.02;;
1949;SDS011;975;48.760;9.152;2023-08-17T05:06:10;14.77;;;7.88;;
1949;SDS011;975;48.760;9.152;2023-08-17T05:08:58;15.05;;;8.52;;
1949;SDS011;975;48.760;9.152;2023-08-17T05:11:46;15.07;;;8.20;;
1949;SDS011;975;48.760;9.152;2023-08-17T05:14:34;13.88;;;7.07;;
1949;SDS011;975;48.760;9.152;2023-08-17T05:17:22;13.02;;;8.38;;
1949;SDS011;975;48.760;9.152;2023-08-17T05:20:12;14.48;;;7.80;;
1949;SDS011;975;48.760;9.152;2023-08-17T05:23:00;15.88;;;8.23;;
1949;SDS011;975;48.760;9.152;2023-08-17T05:25:48;15.57;;;8.15;;
1949;SDS011;975;48.760;9.152;2023-08-17T05:28:36;12.85;;;7.55;;
1949;SDS011;975;48.760;9.152;2023-08-17T05:31:24;16.13;;;8.30;;
1949;SDS011;975;48.760;9.152;2023-08-17T05:34:11;15.93;;;8.48;;
1949;SDS011;975;48.760;9.152;2023-08-17T05:37:01;15.43;;;8.65;;
1949;SDS011;975;48.760;9.152;2023-08-17T05:39:48;15.27;;;8.15;;
1949;SDS011;975;48.760;9.152;2023-08-17T05:42:36;14.50;;;7.75;;
1949;SDS011;975;48.760;9.152;2023-08-17T05:45:24;13.07;;;7.60;;
1949;SDS011;975;48.760;9.152;2023-08-17T05:48:12;15.35;;;7.72;;
1949;SDS011;975;48.760;9.152;2023-08-17T05:51:00;12.90;;;7.25;;
1949;SDS011;975;48.760;9.152;2023-08-17T05:53:49;14.70;;;8.05;;
1949;SDS011;975;48.760;9.152;2023-08-17T05:56:37;12.63;;;7.38;;
1949;SDS011;975;48.760;9.152;2023-08-17T05:59:30;14.68;;;7.85;;
1949;SDS011;975;48.760;9.152;2023-08-17T06:02:18;15.25;;;7.00;;
1949;SDS011;975;48.760;9.152;2023-08-17T06:05:06;15.93;;;7.43;;
1949;SDS011;975;48.760;9.152;2023-08-17T06:07:54;15.07;;;7.45;;
1949;SDS011;975;48.760;9.152;2023-08-17T06:10:44;11.65;;;6.40;;
1949;SDS011;975;48.760;9.152;2023-08-17T06:13:31;10.98;;;6.05;;
1949;SDS011;975;48.760;9.152;2023-08-17T06:16:21;14.63;;;7.55;;
1949;SDS011;975;48.760;9.152;2023-08-17T06:19:08;13.30;;;8.32;;
1949;SDS011;975;48.760;9.152;2023-08-17T06:21:56;10.98;;;7.32;;
1949;SDS011;975;48.760;9.152;2023-08-17T06:24:44;14.68;;;7.70;;
1949;SDS011;975;48.760;9.152;2023-08-17T06:27:34;12.70;;;7.30;;
1949;SDS011;975;48.760;9.152;2023-08-17T06:33:09;15.48;;;8.05;;
1949;SDS011;975;48.760;9.152;2023-08-17T06:35:57;13.38;;;8.25;;
1949;SDS011;975;48.760;9.152;2023-08-17T06:38:45;14.70;;;8.48;;
1949;SDS011;975;48.760;9.152;2023-08-17T06:41:33;14.18;;;8.65;;
1949;SDS011;975;48.760;9.152;2023-08-17T06:44:22;16.27;;;7.82;;
1949;SDS011;975;48.760;9.152;2023-08-17T06:47:10;12.80;;;7.43;;
1949;SDS011;975;48.760;9.152;2023-08-17T06:49:58;13.48;;;7.65;;
1949;SDS011;975;48.760;9.152;2023-08-17T06:52:46;11.38;;;6.47;;
1949;SDS011;975;48.760;9.152;2023-08-17T06:55:33;11.98;;;6.15;;
1949;SDS011;975;48.760;9.152;2023-08-17T06:58:21;10.70;;;6.38;;
1949;SDS011;975;48.760;9.152;2023-08-17T07:01:10;9.88;;;5.68;;
1949;SDS011;975;48.760;9.152;2023-08-17T07:04:00;10.68;;;6.40;;
1949;SDS011;975;48.760;9.152;2023-08-17T07:06:48;11.13;;;6.50;;
1949;SDS011;975;48.760;9.152;2023-08-17T07:09:36;10.90;;;7.00;;
1949;SDS011;975;48.760;9.152;2023-08-17T07:12:24;9.52;;;6.53;;
1949;SDS011;975;48.760;9.152;2023-08-17T07:15:18;11.50;;;6.07;;
1949;SDS011;975;48.760;9.152;2023-08-17T07:18:07;11.45;;;6.72;;
1949;SDS011;975;48.760;9.152;2023-08-17T07:20:55;11.65;;;7.03;;
1949;SDS011;975;48.760;9.152;2023-08-17T07:23:46;10.13;;;6.28;;
1949;SDS011;975;48.760;9.152;2023-08-17T07:26:34;10.50;;;6.57;;
1949;SDS011;975;48.760;9.152;2023-08-17T07:29:22;11.30;;;6.40;;
1949;SDS011;975;48.760;9.152;2023-08-17T07:32:13;14.02;;;7.13;;
1949;SDS011;975;48.760;9.152;2023-08-17T07:35:03;10.32;;;6.35;;
1949;SDS011;975;48.760;9.152;2023-08-17T07:37:51;9.32;;;5.60;;
1949;SDS011;975;48.760;9.152;2023-08-17T07:40:48;12.30;;;5.90;;
1949;SDS011;975;48.760;9.152;2023-08-17T07:43:36;8.95;;;5.85;;
1949;SDS011;975;48.760;9.152;2023-08-17T07:46:23;12.52;;;6.90;;
1949;SDS011;975;48.760;9.152;2023-08-17T07:49:14;11.32;;;6.00;;
1949;SDS011;975;48.760;9.152;2023-08-17T07:52:04;10.40;;;5.82;;
1949;SDS011;975;48.760;9.152;2023-08-17T07:54:52;13.18;;;6.80;;
1949;SDS011;975;48.760;9.152;2023-08-17T07:57:39;14.70;;;5.82;;
1949;SDS011;975;48.760;9.152;2023-08-17T08:00:27;10.60;;;5.95;;
1949;SDS011;975;48.760;9.152;2023-08-17T08:03:15;9.57;;;6.38;;
1949;SDS011;975;48.760;9.152;2023-08-17T08:06:03;10.48;;;5.82;;
1949;SDS011;975;48.760;9.152;2023-08-17T08:08:52;8.88;;;5.72;;
1949;SDS011;975;48.760;9.152;2023-08-17T08:11:40;10.07;;;5.47;;
1949;SDS011;975;48.760;9.152;2023-08-17T08:14:28;10.13;;;5.88;;
1949;SDS011;975;48.760;9.152;2023-08-17T08:17:16;8.60;;;5.10;;
1949;SDS011;975;48.760;9.152;2023-08-17T08:20:05;10.15;;;5.75;;
1949;SDS011;975;48.760;9.152;2023-08-17T08:22:53;9.23;;;5.05;;
1949;SDS011;975;48.760;9.152;2023-08-17T08:25:42;9.85;;;5.38;;
1949;SDS011;975;48.760;9.152;2023-08-17T08:28:30;7.95;;;5.30;;
1949;SDS011;975;48.760;9.152;2023-08-17T08:31:18;7.90;;;4.70;;
1949;SDS011;975;48.760;9.152;2023-08-17T08:34:06;8.50;;;5.88;;
1949;SDS011;975;48.760;9.152;2023-08-17T08:36:57;8.30;;;5.70;;
1949;SDS011;975;48.760;9.152;2023-08-17T08:39:48;7.55;;;5.18;;
1949;SDS011;975;48.760;9.152;2023-08-17T08:42:38;8.10;;;5.45;;
1949;SDS011;975;48.760;9.152;2023-08-17T08:48:13;9.48;;;5.10;;
1949;SDS011;975;48.760;9.152;2023-08-17T08:51:01;10.18;;;5.15;;
1949;SDS011;975;48.760;9.152;2023-08-17T08:53:52;6.30;;;4.80;;
1949;SDS011;975;48.760;9.152;2023-08-17T08:56:42;8.40;;;5.13;;
1949;SDS011;975;48.760;9.152;2023-08-17T08:59:33;9.15;;;4.57;;
1949;SDS011;975;48.760;9.152;2023-08-17T09:02:21;7.55;;;4.97;;
1949;SDS011;975;48.760;9.152;2023-08-17T09:05:09;8.68;;;4.97;;
1949;SDS011;975;48.760;9.152;2023-08-17T09:07:58;8.90;;;4.50;;
1949;SDS011;975;48.760;9.152;2023-08-17T09:10:46;6.45;;;4.18;;
1949;SDS011;975;48.760;9.152;2023-08-17T09:13:34;5.68;;;4.22;;
1949;SDS011;975;48.760;9.152;2023-08-17T09:16:24;6.13;;;4.55;;
1949;SDS011;975;48.760;9.152;2023-08-17T09:19:11;5.32;;;4.43;;
1949;SDS011;975;48.760;9.152;2023-08-17T09:22:00;7.57;;;4.53;;
1949;SDS011;975;48.760;9.152;2023-08-17T09:24:48;6.07;;;3.85;;
1949;SDS011;975;48.760;9.152;2023-08-17T09:27:36;7.22;;;4.75;;
1949;SDS011;975;48.760;9.152;2023-08-17T09:30:24;6.80;;;3.95;;
1949;SDS011;975;48.760;9.152;2023-08-17T09:33:13;6.25;;;3.97;;
1949;SDS011;975;48.760;9.152;2023-08-17T09:38:49;6.85;;;4.25;;
1949;SDS011;975;48.760;9.152;2023-08-17T09:41:38;5.65;;;4.15;;
1949;SDS011;975;48.760;9.152;2023-08-17T09:44:26;10.63;;;4.43;;
1949;SDS011;975;48.760;9.152;2023-08-17T09:47:14;10.60;;;5.78;;
1949;SDS011;975;48.760;9.152;2023-08-17T09:50:05;7.25;;;5.22;;
1949;SDS011;975;48.760;9.152;2023-08-17T09:52:53;7.15;;;4.63;;
1949;SDS011;975;48.760;9.152;2023-08-17T09:55:41;8.75;;;4.30;;
1949;SDS011;975;48.760;9.152;2023-08-17T09:58:29;10.32;;;4.65;;
1949;SDS011;975;48.760;9.152;2023-08-17T10:01:17;6.50;;;4.13;;
1949;SDS011;975;48.760;9.152;2023-08-17T10:04:05;7.38;;;4.25;;
1949;SDS011;975;48.760;9.152;2023-08-17T10:06:56;5.10;;;4.07;;
1949;SDS011;975;48.760;9.152;2023-08-17T10:09:47;5.25;;;4.03;;
1949;SDS011;975;48.760;9.152;2023-08-17T10:12:42;5.75;;;3.90;;
1949;SDS011;975;48.760;9.152;2023-08-17T10:15:32;6.40;;;4.63;;
1949;SDS011;975;48.760;9.152;2023-08-17T10:18:22;5.55;;;3.97;;
1949;SDS011;975;48.760;9.152;2023-08-17T10:21:13;6.28;;;4.13;;
1949;SDS011;975;48.760;9.152;2023-08-17T10:24:02;8.07;;;4.40;;
1949;SDS011;975;48.760;9.152;2023-08-17T10:26:50;5.28;;;4.35;;
1949;SDS011;975;48.760;9.152;2023-08-17T10:29:39;6.15;;;4.10;;
1949;SDS011;975;48.760;9.152;2023-08-17T10:32:28;4.68;;;3.83;;
1949;SDS011;975;48.760;9.152;2023-08-17T10:35:16;6.25;;;4.53;;
1949;SDS011;975;48.760;9.152;2023-08-17T10:38:04;6.68;;;4.47;;
1949;SDS011;975;48.760;9.152;2023-08-17T10:41:10;5.78;;;4.10;;
1949;SDS011;975;48.760;9.152;2023-08-17T10:43:58;6.95;;;4.60;;
1949;SDS011;975;48.760;9.152;2023-08-17T10:46:49;5.40;;;4.30;;
1949;SDS011;975;48.760;9.152;2023-08-17T10:49:37;7.03;;;4.95;;
1949;SDS011;975;48.760;9.152;2023-08-17T10:52:26;5.65;;;4.88;;
1949;SDS011;975;48.760;9.152;2023-08-17T10:55:17;8.38;;;5.63;;
1949;SDS011;975;48.760;9.152;2023-08-17T10:58:08;6.97;;;5.13;;
1949;SDS011;975;48.760;9.152;2023-08-17T11:01:09;6.22;;;5.03;;
1949;SDS011;975;48.760;9.152;2023-08-17T11:04:08;10.43;;;5.03;;
1949;SDS011;975;48.760;9.152;2023-08-17T11:07:13;7.18;;;4.78;;
1949;SDS011;975;48.760;9.152;2023-08-17T11:10:06;5.60;;;4.20;;
1949;SDS011;975;48.760;9.152;2023-08-17T11:13:01;7.75;;;4.28;;
1949;SDS011;975;48.760;9.152;2023-08-17T11:15:56;6.13;;;4.93;;
1949;SDS011;975;48.760;9.152;2023-08-17T11:21:32;6.60;;;5.00;;
1949;SDS011;975;48.760;9.152;2023-08-17T11:24:20;8.68;;;5.80;;
1949;SDS011;975;48.760;9.152;2023-08-17T11:27:09;6.97;;;5.97;;
1949;SDS011;975;48.760;9.152;2023-08-17T11:29:57;9.32;;;5.45;;
1949;SDS011;975;48.760;9.152;2023-08-17T11:32:46;6.78;;;4.85;;
1949;SDS011;975;48.760;9.152;2023-08-17T11:35:34;8.90;;;5.50;;
1949;SDS011;975;48.760;9.152;2023-08-17T11:38:22;8.90;;;5.22;;
1949;SDS011;975;48.760;9.152;2023-08-17T11:41:10;9.55;;;5.05;;
1949;SDS011;975;48.760;9.152;2023-08-17T11:43:59;8.20;;;5.43;;
1949;SDS011;975;48.760;9.152;2023-08-17T11:46:50;8.43;;;5.78;;
1949;SDS011;975;48.760;9.152;2023-08-17T11:49:39;7.32;;;5.25;;
1949;SDS011;975;48.760;9.152;2023-08-17T11:52:27;10.15;;;6.32;;
1949;SDS011;975;48.760;9.152;2023-08-17T11:55:17;7.05;;;6.35;;
1949;SDS011;975;48.760;9.152;2023-08-17T11:58:08;8.38;;;6.25;;
1949;SDS011;975;48.760;9.152;2023-08-17T12:00:56;6.95;;;5.55;;
1949;SDS011;975;48.760;9.152;2023-08-17T12:03:44;6.28;;;5.28;;
1949;SDS011;975;48.760;9.152;2023-08-17T12:06:33;6.78;;;5.50;;
1949;SDS011;975;48.760;9.152;2023-08-17T12:09:21;6.97;;;5.32;;
1949;SDS011;975;48.760;9.152;2023-08-17T12:12:09;9.95;;;5.22;;
1949;SDS011;975;48.760;9.152;2023-08-17T12:14:57;12.52;;;5.35;;
1949;SDS011;975;48.760;9.152;2023-08-17T12:17:46;8.25;;;5.55;;
1949;SDS011;975;48.760;9.152;2023-08-17T12:20:34;7.75;;;5.60;;
1949;SDS011;975;48.760;9.152;2023-08-17T12:23:23;7.25;;;5.60;;
1949;SDS011;975;48.760;9.152;2023-08-17T12:26:17;8.02;;;5.75;;
1949;SDS011;975;48.760;9.152;2023-08-17T12:29:05;8.15;;;6.10;;
1949;SDS011;975;48.760;9.152;2023-08-17T12:31:54;10.63;;;6.60;;
1949;SDS011;975;48.760;9.152;2023-08-17T12:34:41;7.28;;;5.63;;
1949;SDS011;975;48.760;9.152;2023-08-17T12:37:29;11.05;;;5.60;;
1949;SDS011;975;48.760;9.152;2023-08-17T12:40:19;8.38;;;6.35;;
1949;SDS011;975;48.760;9.152;2023-08-17T12:43:07;9.60;;;6.05;;
1949;SDS011;975;48.760;9.152;2023-08-17T12:45:55;9.45;;;7.68;;
1949;SDS011;975;48.760;9.152;2023-08-17T12:48:43;9.02;;;6.88;;
1949;SDS011;975;48.760;9.152;2023-08-17T12:51:30;8.25;;;6.20;;
1949;SDS011;975;48.760;9.152;2023-08-17T12:54:18;10.65;;;6.13;;
1949;SDS011;975;48.760;9.152;2023-08-17T12:57:07;7.40;;;5.88;;
1949;SDS011;975;48.760;9.152;2023-08-17T12:59:55;6.90;;;5.78;;
1949;SDS011;975;48.760;9.152;2023-08-17T13:02:43;6.43;;;5.03;;
1949;SDS011;975;48.760;9.152;2023-08-17T13:05:34;6.65;;;5.10;;
1949;SDS011;975;48.760;9.152;2023-08-17T13:08:22;7.45;;;4.90;;
1949;SDS011;975;48.760;9.152;2023-08-17T13:11:10;8.35;;;5.25;;
1949;SDS011;975;48.760;9.152;2023-08-17T13:14:00;6.50;;;4.78;;
1949;SDS011;975;48.760;9.152;2023-08-17T13:16:48;6.03;;;4.93;;
1949;SDS011;975;48.760;9.152;2023-08-17T13:19:35;6.75;;;4.32;;
1949;SDS011;975;48.760;9.152;2023-08-17T13:22:26;7.20;;;4.95;;
1949;SDS011;975;48.760;9.152;2023-08-17T13:25:14;7.20;;;4.38;;
1949;SDS011;975;48.760;9.152;2023-08-17T13:28:02;6.50;;;4.22;;
1949;SDS011;975;48.760;9.152;2023-08-17T13:30:52;7.32;;;4.30;;
1949;SDS011;975;48.760;9.152;2023-08-17T13:33:39;5.93;;;4.03;;
1949;SDS011;975;48.760;9.152;2023-08-17T13:36:27;5.28;;;3.83;;
1949;SDS011;975;48.760;9.152;2023-08-17T13:39:18;8.13;;;4.88;;
1949;SDS011;975;48.760;9.152;2023-08-17T13:42:07;7.43;;;5.22;;
1949;SDS011;975;48.760;9.152;2023-08-17T13:44:55;9.88;;;4.80;;
1949;SDS011;975;48.760;9.152;2023-08-17T13:47:50;6.65;;;4.63;;
1949;SDS011;975;48.760;9.152;2023-08-17T13:50:41;8.52;;;5.43;;
1949;SDS011;975;48.760;9.152;2023-08-17T13:53:30;8.50;;;4.95;;
1949;SDS011;975;48.760;9.152;2023-08-17T13:56:18;8.20;;;4.93;;
1949;SDS011;975;48.760;9.152;2023-08-17T13:59:06;9.35;;;4.50;;
1949;SDS011;975;48.760;9.152;2023-08-17T14:01:54;8.27;;;4.88;;
1949;SDS011;975;48.760;9.152;2023-08-17T14:04:43;7.50;;;4.68;;
1949;SDS011;975;48.760;9.152;2023-08-17T14:07:31;7.38;;;4.43;;
1949;SDS011;975;48.760;9.152;2023-08-17T14:10:22;5.30;;;4.07;;
1949;SDS011;975;48.760;9.152;2023-08-17T14:13:10;7.95;;;4.90;;
1949;SDS011;975;48.760;9.152;2023-08-17T14:15:58;7.30;;;4.97;;
1949;SDS011;975;48.760;9.152;2023-08-17T14:18:49;6.22;;;4.40;;
1949;SDS011;975;48.760;9.152;2023-08-17T14:21:38;8.88;;;4.70;;
1949;SDS011;975;48.760;9.152;2023-08-17T14:24:26;6.93;;;5.22;;
1949;SDS011;975;48.760;9.152;2023-08-17T14:27:23;8.90;;;5.03;;
1949;SDS011;975;48.760;9.152;2023-08-17T14:30:11;6.65;;;4.05;;
1949;SDS011;975;48.760;9.152;2023-08-17T14:32:59;6.93;;;4.80;;
1949;SDS011;975;48.760;9.152;2023-08-17T14:35:52;6.88;;;4.75;;
1949;SDS011;975;48.760;9.152;2023-08-17T14:38:41;8.75;;;4.75;;
1949;SDS011;975;48.760;9.152;2023-08-17T14:41:29;7.80;;;4.95;;
1949;SDS011;975;48.760;9.152;2023-08-17T14:44:18;6.35;;;4.60;;
1949;SDS011;975;48.760;9.152;2023-08-17T14:47:08;6.43;;;4.55;;
1949;SDS011;975;48.760;9.152;2023-08-17T14:49:56;7.72;;;4.72;;
1949;SDS011;975;48.760;9.152;2023-08-17T14:52:47;6.20;;;4.78;;
1949;SDS011;975;48.760;9.152;2023-08-17T14:55:42;8.63;;;4.30;;
1949;SDS011;975;48.760;9.152;2023-08-17T14:58:30;7.68;;;5.28;;
1949;SDS011;975;48.760;9.152;2023-08-17T15:01:21;8.40;;;4.63;;
1949;SDS011;975;48.760;9.152;2023-08-17T15:04:09;5.85;;;4.28;;
1949;SDS011;975;48.760;9.152;2023-08-17T15:06:57;8.15;;;4.63;;
1949;SDS011;975;48.760;9.152;2023-08-17T15:09:54;6.78;;;4.32;;
1949;SDS011;975;48.760;9.152;2023-08-17T15:12:46;6.18;;;4.20;;
1949;SDS011;975;48.760;9.152;2023-08-17T15:15:34;9.27;;;4.50;;
1949;SDS011;975;48.760;9.152;2023-08-17T15:18:22;7.32;;;4.07;;
1949;SDS011;975;48.760;9.152;2023-08-17T15:21:10;8.23;;;4.40;;
1949;SDS011;975;48.760;9.152;2023-08-17T15:23:58;7.30;;;4.40;;
1949;SDS011;975;48.760;9.152;2023-08-17T15:26:46;5.72;;;4.10;;
1949;SDS011;975;48.760;9.152;2023-08-17T15:29:43;6.32;;;4.63;;
1949;SDS011;975;48.760;9.152;2023-08-17T15:32:31;6.55;;;4.63;;
1949;SDS011;975;48.760;9.152;2023-08-17T15:35:19;8.73;;;4.65;;
1949;SDS011;975;48.760;9.152;2023-08-17T15:38:07;7.22;;;4.65;;
1949;SDS011;975;48.760;9.152;2023-08-17T15:40:55;7.15;;;4.57;;
1949;SDS011;975;48.760;9.152;2023-08-17T15:43:43;6.70;;;4.13;;
1949;SDS011;975;48.760;9.152;2023-08-17T15:46:34;4.07;;;3.65;;
1949;SDS011;975;48.760;9.152;2023-08-17T15:49:25;7.00;;;4.45;;
1949;SDS011;975;48.760;9.152;2023-08-17T15:52:13;7.80;;;4.90;;
1949;SDS011;975;48.760;9.152;2023-08-17T15:55:01;5.65;;;4.03;;
1949;SDS011;975;48.760;9.152;2023-08-17T15:57:49;5.43;;;3.90;;
1949;SDS011;975;48.760;9.152;2023-08-17T16:00:37;6.95;;;4.57;;
1949;SDS011;975;48.760;9.152;2023-08-17T16:03:26;6.72;;;4.53;;
1949;SDS011;975;48.760;9.152;2023-08-17T16:09:02;9.00;;;4.60;;
1949;SDS011;975;48.760;9.152;2023-08-17T16:11:50;7.20;;;4.47;;
1949;SDS011;975;48.760;9.152;2023-08-17T16:14:38;6.07;;;4.15;;
1949;SDS011;975;48.760;9.152;2023-08-17T16:17:26;7.35;;;3.85;;
1949;SDS011;975;48.760;9.152;2023-08-17T16:20:15;5.38;;;3.78;;
1949;SDS011;975;48.760;9.152;2023-08-17T16:25:53;7.18;;;4.85;;
1949;SDS011;975;48.760;9.152;2023-08-17T16:28:50;5.82;;;4.13;;
1949;SDS011;975;48.760;9.152;2023-08-17T16:31:38;6.78;;;4.60;;
1949;SDS011;975;48.760;9.152;2023-08-17T16:34:27;6.80;;;3.83;;
1949;SDS011;975;48.760;9.152;2023-08-17T16:37:16;5.45;;;4.50;;
1949;SDS011;975;48.760;9.152;2023-08-17T16:40:05;6.57;;;4.07;;
1949;SDS011;975;48.760;9.152;2023-08-17T16:42:53;6.53;;;3.88;;
1949;SDS011;975;48.760;9.152;2023-08-17T16:45:41;5.70;;;4.50;;
1949;SDS011;975;48.760;9.152;2023-08-17T16:48:35;6.30;;;4.70;;
1949;SDS011;975;48.760;9.152;2023-08-17T16:51:26;7.40;;;4.35;;
1949;SDS011;975;48.760;9.152;2023-08-17T16:54:15;8.00;;;4.50;;
1949;SDS011;975;48.760;9.152;2023-08-17T16:59:50;5.93;;;4.68;;
1949;SDS011;975;48.760;9.152;2023-08-17T17:02:38;5.22;;;4.20;;
1949;SDS011;975;48.760;9.152;2023-08-17T17:05:26;6.30;;;4.75;;
1949;SDS011;975;48.760;9.152;2023-08-17T17:08:14;9.65;;;5.15;;
1949;SDS011;975;48.760;9.152;2023-08-17T17:11:03;5.70;;;4.28;;
1949;SDS011;975;48.760;9.152;2023-08-17T17:16:38;7.20;;;5.35;;
1949;SDS011;975;48.760;9.152;2023-08-17T17:19:26;5.70;;;4.93;;
1949;SDS011;975;48.760;9.152;2023-08-17T17:22:14;6.57;;;4.20;;
1949;SDS011;975;48.760;9.152;2023-08-17T17:25:02;6.00;;;4.90;;
1949;SDS011;975;48.760;9.152;2023-08-17T17:27:52;8.40;;;5.30;;
1949;SDS011;975;48.760;9.152;2023-08-17T17:33:27;6.30;;;4.65;;
1949;SDS011;975;48.760;9.152;2023-08-17T17:36:15;8.30;;;4.95;;
1949;SDS011;975;48.760;9.152;2023-08-17T17:39:03;7.57;;;5.10;;
1949;SDS011;975;48.760;9.152;2023-08-17T17:41:51;7.15;;;4.93;;
1949;SDS011;975;48.760;9.152;2023-08-17T17:44:41;8.07;;;5.40;;
1949;SDS011;975;48.760;9.152;2023-08-17T17:47:29;8.60;;;5.30;;
1949;SDS011;975;48.760;9.152;2023-08-17T17:50:20;7.40;;;4.82;;
1949;SDS011;975;48.760;9.152;2023-08-17T17:53:08;10.10;;;5.07;;
1949;SDS011;975;48.760;9.152;2023-08-17T17:55:56;6.78;;;4.63;;
1949;SDS011;975;48.760;9.152;2023-08-17T17:58:44;6.57;;;4.45;;
1949;SDS011;975;48.760;9.152;2023-08-17T18:01:33;5.53;;;4.57;;
1949;SDS011;975;48.760;9.152;2023-08-17T18:07:08;5.38;;;4.18;;
1949;SDS011;975;48.760;9.152;2023-08-17T18:09:56;7.63;;;4.68;;
1949;SDS011;975;48.760;9.152;2023-08-17T18:15:34;7.55;;;4.28;;
1949;SDS011;975;48.760;9.152;2023-08-17T18:18:23;6.53;;;4.88;;